sensor_id;sensor_type;location;lat;lon;timestamp;pressure;altitude;pressure_sealevel;temperature;humidity
59487;BME280;45298;54.918;73.504;2023-04-01T00:01:24;102708.53;;;-8.41;67.13
59487;BME280;45298;54.918;73.504;2023-04-01T00:03:53;102630.13;;;-8.91;66.59
59487;BME280;45298;54.918;73.504;2023-04-01T00:06:22;102746.38;;;-8.25;67.39
59487;BME280;45298;54.918;73.504;2023-04-01T00:08:51;102713.66;;;-8.41;67.07
59487;BME280;45298;54.918;73.504;2023-04-01T00:11:22;102715.44;;;-8.40;67.36
59487;BME280;45298;54.918;73.504;2023-04-01T00:13:50;102725.25;;;-8.34;67.01
59487;BME280;45298;54.918;73.504;2023-04-01T00:16:19;102702.38;;;-8.43;67.25
59487;BME280;45298;54.918;73.504;2023-04-01T00:18:50;102714.38;;;-8.43;67.63
59487;BME280;45298;54.918;73.504;2023-04-01T00:21:20;102692.75;;;-8.62;68.16
59487;BME280;45298;54.918;73.504;2023-04-01T00:23:51;102737.28;;;-8.33;67.89
59487;BME280;45298;54.918;73.504;2023-04-01T00:26:20;102752.72;;;-8.33;67.97
59487;BME280;45298;54.918;73.504;2023-04-01T00:28:50;102735.06;;;-8.42;68.64
59487;BME280;45298;54.918;73.504;2023-04-01T00:31:19;102743.69;;;-8.41;68.14
59487;BME280;45298;54.918;73.504;2023-04-01T00:33:48;102741.13;;;-8.41;68.43
59487;BME280;45298;54.918;73.504;2023-04-01T00:36:20;102716.53;;;-8.51;68.68
59487;BME280;45298;54.918;73.504;2023-04-01T00:38:50;102753.72;;;-8.31;68.56
59487;BME280;45298;54.918;73.504;2023-04-01T00:41:20;102740.50;;;-8.37;68.79
59487;BME280;45298;54.918;73.504;2023-04-01T00:43:50;102740.13;;;-8.43;69.12
59487;BME280;45298;54.918;73.504;2023-04-01T00:46:19;102736.56;;;-8.45;68.73
59487;BME280;45298;54.918;73.504;2023-04-01T00:48:51;102752.38;;;-8.39;69.17
59487;BME280;45298;54.918;73.504;2023-04-01T00:51:23;102765.00;;;-8.29;69.02
59487;BME280;45298;54.918;73.504;2023-04-01T00:53:56;102750.81;;;-8.37;69.41
59487;BME280;45298;54.918;73.504;2023-04-01T00:56:48;102758.78;;;-8.32;69.29
59487;BME280;45298;54.918;73.504;2023-04-01T00:59:24;102701.34;;;-8.61;69.00
59487;BME280;45298;54.918;73.504;2023-04-01T01:01:54;102730.63;;;-8.44;69.22
59487;BME280;45298;54.918;73.504;2023-04-01T01:04:26;102762.78;;;-8.23;69.28
59487;BME280;45298;54.918;73.504;2023-04-01T01:10:03;102766.97;;;-8.10;69.48
59487;BME280;45298;54.918;73.504;2023-04-01T01:12:41;102759.69;;;-8.02;69.07
59487;BME280;45298;54.918;73.504;2023-04-01T01:15:41;102761.66;;;-7.98;69.64
59487;BME280;45298;54.918;73.504;2023-04-01T01:18:38;102761.13;;;-7.92;69.53
59487;BME280;45298;54.918;73.504;2023-04-01T01:27:25;102731.09;;;-7.92;69.62
59487;BME280;45298;54.918;73.504;2023-04-01T01:35:56;102730.63;;;-7.69;69.62
59487;BME280;45298;54.918;73.504;2023-04-01T01:38:29;102750.09;;;-7.60;70.27
59487;BME280;45298;54.918;73.504;2023-04-01T01:41:04;102760.78;;;-7.37;70.29
59487;BME280;45298;54.918;73.504;2023-04-01T01:43:40;102740.00;;;-7.40;69.69
59487;BME280;45298;54.918;73.504;2023-04-01T01:46:16;102650.78;;;-7.84;69.93
59487;BME280;45298;54.918;73.504;2023-04-01T01:48:47;102726.78;;;-7.30;70.88
59487;BME280;45298;54.918;73.504;2023-04-01T01:51:17;102744.06;;;-7.12;70.67
59487;BME280;45298;54.918;73.504;2023-04-01T01:53:49;102760.41;;;-6.96;70.31
59487;BME280;45298;54.918;73.504;2023-04-01T01:56:22;102771.38;;;-6.84;70.33
59487;BME280;45298;54.918;73.504;2023-04-01T01:58:56;102745.56;;;-6.68;69.38
59487;BME280;45298;54.918;73.504;2023-04-01T02:01:31;102771.75;;;-4.62;67.89
59487;BME280;45298;54.918;73.504;2023-04-01T02:04:10;102766.28;;;-3.00;63.71
59487;BME280;45298;54.918;73.504;2023-04-01T02:06:44;102696.81;;;-2.07;61.18
59487;BME280;45298;54.918;73.504;2023-04-01T02:09:15;102738.66;;;-0.87;58.86
59487;BME280;45298;54.918;73.504;2023-04-01T02:12:12;102753.16;;;-0.01;56.61
59487;BME280;45298;54.918;73.504;2023-04-01T02:17:24;102745.69;;;1.33;53.47
59487;BME280;45298;54.918;73.504;2023-04-01T02:20:06;102755.94;;;2.17;51.85
59487;BME280;45298;54.918;73.504;2023-04-01T02:22:41;102774.28;;;2.72;50.28
59487;BME280;45298;54.918;73.504;2023-04-01T02:25:17;102755.47;;;3.05;49.20
59487;BME280;45298;54.918;73.504;2023-04-01T02:27:47;102758.50;;;3.37;47.91
59487;BME280;45298;54.918;73.504;2023-04-01T02:30:17;102785.03;;;3.63;47.15
59487;BME280;45298;54.918;73.504;2023-04-01T02:32:47;102778.25;;;3.81;46.75
59487;BME280;45298;54.918;73.504;2023-04-01T02:35:17;102748.53;;;3.87;45.66
59487;BME280;45298;54.918;73.504;2023-04-01T02:37:50;102769.78;;;4.12;45.73
59487;BME280;45298;54.918;73.504;2023-04-01T02:40:23;102775.19;;;4.33;44.90
59487;BME280;45298;54.918;73.504;2023-04-01T02:42:52;102769.09;;;4.37;44.33
59487;BME280;45298;54.918;73.504;2023-04-01T02:45:22;102731.22;;;4.09;44.10
59487;BME280;45298;54.918;73.504;2023-04-01T02:47:50;102750.25;;;3.86;44.46
59487;BME280;45298;54.918;73.504;2023-04-01T02:50:19;102745.09;;;3.91;44.38
59487;BME280;45298;54.918;73.504;2023-04-01T02:52:47;102773.97;;;3.94;45.09
59487;BME280;45298;54.918;73.504;2023-04-01T02:55:16;102766.19;;;3.20;45.21
59487;BME280;45298;54.918;73.504;2023-04-01T02:57:45;102762.81;;;2.66;46.20
59487;BME280;45298;54.918;73.504;2023-04-01T03:00:15;102787.34;;;2.16;47.29
59487;BME280;45298;54.918;73.504;2023-04-01T03:02:44;102753.69;;;1.41;48.07
59487;BME280;45298;54.918;73.504;2023-04-01T03:05:14;102794.53;;;1.34;48.79
59487;BME280;45298;54.918;73.504;2023-04-01T03:07:43;102798.91;;;1.33;49.11
59487;BME280;45298;54.918;73.504;2023-04-01T03:10:13;102816.28;;;1.31;49.94
59487;BME280;45298;54.918;73.504;2023-04-01T03:12:42;102819.81;;;0.94;49.80
59487;BME280;45298;54.918;73.504;2023-04-01T03:15:13;102810.41;;;0.64;50.93
59487;BME280;45298;54.918;73.504;2023-04-01T03:17:48;102793.31;;;0.41;51.64
59487;BME280;45298;54.918;73.504;2023-04-01T03:20:17;102792.22;;;0.32;51.86
59487;BME280;45298;54.918;73.504;2023-04-01T03:22:48;102800.59;;;0.18;52.69
59487;BME280;45298;54.918;73.504;2023-04-01T03:25:18;102815.69;;;-0.04;52.55
59487;BME280;45298;54.918;73.504;2023-04-01T03:27:47;102789.34;;;-0.45;53.35
59487;BME280;45298;54.918;73.504;2023-04-01T03:30:16;102763.16;;;-0.80;54.14
59487;BME280;45298;54.918;73.504;2023-04-01T03:32:50;102721.75;;;-1.01;54.59
59487;BME280;45298;54.918;73.504;2023-04-01T03:35:19;102816.72;;;-0.61;54.36
59487;BME280;45298;54.918;73.504;2023-04-01T03:37:48;102839.47;;;-0.55;54.96
59487;BME280;45298;54.918;73.504;2023-04-01T03:40:19;102851.81;;;-0.50;55.11
59487;BME280;45298;54.918;73.504;2023-04-01T03:42:49;102826.44;;;-0.55;54.68
59487;BME280;45298;54.918;73.504;2023-04-01T03:45:18;102819.03;;;-0.41;54.72
59487;BME280;45298;54.918;73.504;2023-04-01T03:47:48;102788.09;;;-0.27;54.32
59487;BME280;45298;54.918;73.504;2023-04-01T03:50:17;102805.88;;;-0.14;54.37
59487;BME280;45298;54.918;73.504;2023-04-01T03:52:46;102807.38;;;-0.22;53.99
59487;BME280;45298;54.918;73.504;2023-04-01T03:55:15;102828.16;;;0.07;54.02
59487;BME280;45298;54.918;73.504;2023-04-01T03:57:50;102852.59;;;0.44;54.15
59487;BME280;45298;54.918;73.504;2023-04-01T04:00:23;102764.50;;;0.00;54.27
59487;BME280;45298;54.918;73.504;2023-04-01T04:02:54;102822.97;;;0.43;54.18
59487;BME280;45298;54.918;73.504;2023-04-01T04:05:30;102847.84;;;0.63;53.77
59487;BME280;45298;54.918;73.504;2023-04-01T04:08:00;102829.03;;;0.42;53.42
59487;BME280;45298;54.918;73.504;2023-04-01T04:10:29;102809.66;;;0.33;53.90
59487;BME280;45298;54.918;73.504;2023-04-01T04:12:58;102837.03;;;0.49;54.46
59487;BME280;45298;54.918;73.504;2023-04-01T04:15:29;102843.22;;;0.52;53.87
59487;BME280;45298;54.918;73.504;2023-04-01T04:17:58;102813.78;;;0.59;53.92
59487;BME280;45298;54.918;73.504;2023-04-01T04:20:28;102814.22;;;0.78;53.89
59487;BME280;45298;54.918;73.504;2023-04-01T04:22:57;102829.50;;;0.99;53.74
59487;BME280;45298;54.918;73.504;2023-04-01T04:25:28;102847.56;;;1.27;53.08
59487;BME280;45298;54.918;73.504;2023-04-01T04:27:59;102831.81;;;1.24;53.35
59487;BME280;45298;54.918;73.504;2023-04-01T04:30:28;102836.69;;;1.49;53.33
59487;BME280;45298;54.918;73.504;2023-04-01T04:32:56;102836.97;;;1.62;53.10
59487;BME280;45298;54.918;73.504;2023-04-01T04:35:25;102828.19;;;1.60;53.07
59487;BME280;45298;54.918;73.504;2023-04-01T04:37:54;102844.03;;;1.66;53.03
59487;BME280;45298;54.918;73.504;2023-04-01T04:40:23;102732.09;;;1.07;52.63
59487;BME280;45298;54.918;73.504;2023-04-01T04:42:52;102840.34;;;1.56;52.61
59487;BME280;45298;54.918;73.504;2023-04-01T04:45:21;102795.28;;;1.27;53.25
59487;BME280;45298;54.918;73.504;2023-04-01T04:47:54;102845.66;;;1.61;52.85
59487;BME280;45298;54.918;73.504;2023-04-01T04:50:25;102863.22;;;1.68;52.39
59487;BME280;45298;54.918;73.504;2023-04-01T04:52:55;102779.31;;;1.14;53.10
59487;BME280;45298;54.918;73.504;2023-04-01T04:55:24;102844.53;;;1.48;53.68
59487;BME280;45298;54.918;73.504;2023-04-01T04:58:13;102844.59;;;1.51;52.84
59487;BME280;45298;54.918;73.504;2023-04-01T05:00:43;102865.69;;;1.60;54.04
59487;BME280;45298;54.918;73.504;2023-04-01T05:03:34;102866.19;;;1.84;53.25
59487;BME280;45298;54.918;73.504;2023-04-01T05:06:05;102875.03;;;1.92;53.63
59487;BME280;45298;54.918;73.504;2023-04-01T05:08:35;102854.97;;;1.91;53.36
59487;BME280;45298;54.918;73.504;2023-04-01T05:11:07;102836.69;;;1.92;52.96
59487;BME280;45298;54.918;73.504;2023-04-01T05:13:43;102865.63;;;2.00;52.57
59487;BME280;45298;54.918;73.504;2023-04-01T05:16:20;102793.34;;;1.61;52.13
59487;BME280;45298;54.918;73.504;2023-04-01T05:18:49;102851.56;;;1.95;52.72
59487;BME280;45298;54.918;73.504;2023-04-01T05:21:18;102799.19;;;1.93;52.35
59487;BME280;45298;54.918;73.504;2023-04-01T05:23:48;102800.84;;;1.90;51.88
59487;BME280;45298;54.918;73.504;2023-04-01T05:26:17;102755.22;;;1.75;51.95
59487;BME280;45298;54.918;73.504;2023-04-01T05:28:47;102828.53;;;2.24;51.90
59487;BME280;45298;54.918;73.504;2023-04-01T05:31:20;102833.09;;;2.35;51.58
59487;BME280;45298;54.918;73.504;2023-04-01T05:33:50;102848.94;;;2.46;51.13
59487;BME280;45298;54.918;73.504;2023-04-01T05:36:19;102820.84;;;2.35;51.36
59487;BME280;45298;54.918;73.504;2023-04-01T05:38:48;102830.72;;;2.52;51.82
59487;BME280;45298;54.918;73.504;2023-04-01T05:41:19;102816.84;;;2.57;51.17
59487;BME280;45298;54.918;73.504;2023-04-01T05:43:47;102800.13;;;2.51;50.77
59487;BME280;45298;54.918;73.504;2023-04-01T05:46:35;102829.72;;;2.44;50.27
59487;BME280;45298;54.918;73.504;2023-04-01T05:49:22;102808.50;;;2.28;50.88
59487;BME280;45298;54.918;73.504;2023-04-01T05:51:54;102790.28;;;2.34;51.25
59487;BME280;45298;54.918;73.504;2023-04-01T05:54:23;102736.75;;;2.17;52.47
59487;BME280;45298;54.918;73.504;2023-04-01T05:56:52;102828.50;;;2.77;51.05
59487;BME280;45298;54.918;73.504;2023-04-01T05:59:20;102798.72;;;2.71;51.09
59487;BME280;45298;54.918;73.504;2023-04-01T06:01:50;102802.47;;;2.89;51.79
59487;BME280;45298;54.918;73.504;2023-04-01T06:04:20;102823.66;;;3.05;51.14
59487;BME280;45298;54.918;73.504;2023-04-01T06:06:49;102806.78;;;2.87;50.98
59487;BME280;45298;54.918;73.504;2023-04-01T06:09:27;102785.50;;;2.62;50.75
59487;BME280;45298;54.918;73.504;2023-04-01T06:14:38;102826.06;;;2.89;50.89
59487;BME280;45298;54.918;73.504;2023-04-01T06:20:35;102810.47;;;2.98;51.77
59487;BME280;45298;54.918;73.504;2023-04-01T06:23:39;102809.66;;;3.02;51.60
59487;BME280;45298;54.918;73.504;2023-04-01T06:26:35;102814.31;;;3.22;51.43
59487;BME280;45298;54.918;73.504;2023-04-01T06:29:26;102810.81;;;3.25;50.37
59487;BME280;45298;54.918;73.504;2023-04-01T06:43:54;102811.97;;;3.47;49.19
59487;BME280;45298;54.918;73.504;2023-04-01T06:56:16;102755.22;;;2.83;49.34
59487;BME280;45298;54.918;73.504;2023-04-01T06:59:16;102804.31;;;2.96;50.56
59487;BME280;45298;54.918;73.504;2023-04-01T07:01:59;102812.50;;;3.20;50.96
59487;BME280;45298;54.918;73.504;2023-04-01T07:04:32;102798.28;;;3.02;50.81
59487;BME280;45298;54.918;73.504;2023-04-01T07:13:41;102800.56;;;3.42;50.16
59487;BME280;45298;54.918;73.504;2023-04-01T07:16:21;102773.19;;;3.24;49.61
59487;BME280;45298;54.918;73.504;2023-04-01T07:19:01;102775.72;;;3.16;49.57
59487;BME280;45298;54.918;73.504;2023-04-01T07:21:53;102707.19;;;2.85;49.61
59487;BME280;45298;54.918;73.504;2023-04-01T07:24:36;102787.44;;;3.43;50.29
59487;BME280;45298;54.918;73.504;2023-04-01T07:27:13;102762.75;;;3.26;49.53
59487;BME280;45298;54.918;73.504;2023-04-01T07:29:44;102768.16;;;3.40;49.76
59487;BME280;45298;54.918;73.504;2023-04-01T07:35:29;102792.94;;;3.67;48.96
59487;BME280;45298;54.918;73.504;2023-04-01T07:43:38;102787.13;;;3.97;49.35
59487;BME280;45298;54.918;73.504;2023-04-01T07:49:19;102753.91;;;4.04;49.14
59487;BME280;45298;54.918;73.504;2023-04-01T07:51:56;102772.31;;;4.04;48.99
59487;BME280;45298;54.918;73.504;2023-04-01T08:08:39;102759.97;;;3.93;48.89
59487;BME280;45298;54.918;73.504;2023-04-01T08:18:14;102765.00;;;3.72;49.70
59487;BME280;45298;54.918;73.504;2023-04-01T08:23:57;102740.53;;;3.73;49.27
59487;BME280;45298;54.918;73.504;2023-04-01T08:26:33;102729.06;;;3.65;49.49
59487;BME280;45298;54.918;73.504;2023-04-01T08:29:20;102718.38;;;3.44;48.78
59487;BME280;45298;54.918;73.504;2023-04-01T08:32:10;102717.66;;;3.59;50.22
59487;BME280;45298;54.918;73.504;2023-04-01T08:34:45;102742.31;;;3.77;49.66
59487;BME280;45298;54.918;73.504;2023-04-01T08:37:30;102721.31;;;3.77;49.93
59487;BME280;45298;54.918;73.504;2023-04-01T08:43:05;102725.59;;;3.69;48.16
59487;BME280;45298;54.918;73.504;2023-04-01T08:46:19;102728.19;;;3.62;47.82
59487;BME280;45298;54.918;73.504;2023-04-01T08:49:06;102728.97;;;3.57;48.77
59487;BME280;45298;54.918;73.504;2023-04-01T08:52:28;102721.97;;;3.56;48.92
59487;BME280;45298;54.918;73.504;2023-04-01T08:58:32;102716.47;;;3.31;49.71
59487;BME280;45298;54.918;73.504;2023-04-01T09:02:08;102705.00;;;3.21;50.49
59487;BME280;45298;54.918;73.504;2023-04-01T09:22:25;102703.06;;;3.08;50.47
59487;BME280;45298;54.918;73.504;2023-04-01T09:25:22;102696.28;;;3.22;50.39
59487;BME280;45298;54.918;73.504;2023-04-01T09:37:08;102697.00;;;3.10;50.84
59487;BME280;45298;54.918;73.504;2023-04-01T09:45:46;102679.19;;;2.84;51.30
59487;BME280;45298;54.918;73.504;2023-04-01T09:51:06;102655.31;;;2.61;51.35
59487;BME280;45298;54.918;73.504;2023-04-01T09:56:32;102679.06;;;2.72;51.86
59487;BME280;45298;54.918;73.504;2023-04-01T10:05:43;102635.63;;;2.26;52.46
59487;BME280;45298;54.918;73.504;2023-04-01T10:19:15;102663.19;;;2.01;53.11
59487;BME280;45298;54.918;73.504;2023-04-01T10:28:30;102657.53;;;1.75;53.60
59487;BME280;45298;54.918;73.504;2023-04-01T10:51:43;102655.28;;;1.47;54.21
59487;BME280;45298;54.918;73.504;2023-04-01T11:24:07;102638.63;;;1.41;55.78
59487;BME280;45298;54.918;73.504;2023-04-01T11:29:53;102635.88;;;1.33;55.45
59487;BME280;45298;54.918;73.504;2023-04-01T11:52:47;102618.78;;;1.03;58.15
59487;BME280;45298;54.918;73.504;2023-04-01T11:56:27;102604.78;;;1.01;57.62
59487;BME280;45298;54.918;73.504;2023-04-01T12:04:05;102602.97;;;0.97;57.71
59487;BME280;45298;54.918;73.504;2023-04-01T12:06:44;102550.97;;;0.65;57.57
59487;BME280;45298;54.918;73.504;2023-04-01T12:19:09;102587.47;;;0.62;58.03
59487;BME280;45298;54.918;73.504;2023-04-01T12:41:46;102532.13;;;-0.05;59.37
59487;BME280;45298;54.918;73.504;2023-04-01T12:44:37;102618.44;;;0.43;59.57
59487;BME280;45298;54.918;73.504;2023-04-01T12:55:49;102578.75;;;0.20;60.20
59487;BME280;45298;54.918;73.504;2023-04-01T12:58:41;102509.09;;;-0.24;61.01
59487;BME280;45298;54.918;73.504;2023-04-01T13:01:23;102584.03;;;0.21;61.46
59487;BME280;45298;54.918;73.504;2023-04-01T13:20:43;102557.94;;;-0.17;62.38
59487;BME280;45298;54.918;73.504;2023-04-01T13:23:23;102561.34;;;-0.21;62.91
59487;BME280;45298;54.918;73.504;2023-04-01T13:28:43;102566.13;;;-0.40;62.62
59487;BME280;45298;54.918;73.504;2023-04-01T13:37:08;102573.59;;;-0.54;63.37
59487;BME280;45298;54.918;73.504;2023-04-01T13:43:18;102529.56;;;-0.78;63.52
59487;BME280;45298;54.918;73.504;2023-04-01T13:45:29;102450.94;;;-1.30;64.58
59487;BME280;45298;54.918;73.504;2023-04-01T13:48:21;102543.31;;;-0.84;64.51
59487;BME280;45298;54.918;73.504;2023-04-01T13:51:14;102547.31;;;-0.97;64.92
59487;BME280;45298;54.918;73.504;2023-04-01T14:02:39;102531.84;;;-1.24;65.50
59487;BME280;45298;54.918;73.504;2023-04-01T14:05:50;102530.81;;;-1.31;65.38
59487;BME280;45298;54.918;73.504;2023-04-01T14:11:24;102522.44;;;-1.51;65.41
59487;BME280;45298;54.918;73.504;2023-04-01T14:34:55;102529.50;;;-1.77;66.40
59487;BME280;45298;54.918;73.504;2023-04-01T14:43:12;102508.34;;;-1.90;66.78
59487;BME280;45298;54.918;73.504;2023-04-01T14:51:38;102500.25;;;-1.99;67.02
59487;BME280;45298;54.918;73.504;2023-04-01T14:57:03;102506.13;;;-2.06;66.54
59487;BME280;45298;54.918;73.504;2023-04-01T15:00:00;102506.06;;;-2.08;66.05
59487;BME280;45298;54.918;73.504;2023-04-01T15:02:58;102492.69;;;-2.20;66.66
59487;BME280;45298;54.918;73.504;2023-04-01T15:08:34;102488.13;;;-2.28;66.82
59487;BME280;45298;54.918;73.504;2023-04-01T15:19:40;102486.16;;;-2.35;66.50
59487;BME280;45298;54.918;73.504;2023-04-01T15:25:35;102464.63;;;-2.60;66.89
59487;BME280;45298;54.918;73.504;2023-04-01T15:36:29;102478.00;;;-2.47;67.00
59487;BME280;45298;54.918;73.504;2023-04-01T15:44:51;102447.72;;;-2.74;66.95
59487;BME280;45298;54.918;73.504;2023-04-01T15:55:53;102443.22;;;-2.80;67.18
59487;BME280;45298;54.918;73.504;2023-04-01T16:01:32;102475.63;;;-2.68;67.02
59487;BME280;45298;54.918;73.504;2023-04-01T16:09:56;102456.09;;;-2.83;67.21
59487;BME280;45298;54.918;73.504;2023-04-01T16:12:53;102478.75;;;-2.79;68.27
59487;BME280;45298;54.918;73.504;2023-04-01T16:23:49;102434.56;;;-3.06;68.43
59487;BME280;45298;54.918;73.504;2023-04-01T16:26:29;102438.06;;;-3.06;68.11
59487;BME280;45298;54.918;73.504;2023-04-01T16:29:10;102460.19;;;-2.91;68.43
59487;BME280;45298;54.918;73.504;2023-04-01T16:43:47;102477.50;;;-3.17;69.15
59487;BME280;45298;54.918;73.504;2023-04-01T16:46:34;102466.31;;;-3.15;69.20
59487;BME280;45298;54.918;73.504;2023-04-01T16:49:23;102445.59;;;-3.39;69.03
59487;BME280;45298;54.918;73.504;2023-04-01T16:54:47;102451.06;;;-3.31;69.17
59487;BME280;45298;54.918;73.504;2023-04-01T16:57:37;102473.94;;;-3.20;68.81
59487;BME280;45298;54.918;73.504;2023-04-01T17:03:03;102479.91;;;-3.22;68.94
59487;BME280;45298;54.918;73.504;2023-04-01T17:11:29;102472.41;;;-3.39;69.42
59487;BME280;45298;54.918;73.504;2023-04-01T17:14:20;102493.28;;;-3.36;69.24
59487;BME280;45298;54.918;73.504;2023-04-01T17:25:48;102487.47;;;-3.54;69.79
59487;BME280;45298;54.918;73.504;2023-04-01T17:28:44;102492.09;;;-3.45;70.24
59487;BME280;45298;54.918;73.504;2023-04-01T17:31:32;102486.75;;;-3.50;69.70
59487;BME280;45298;54.918;73.504;2023-04-01T17:56:22;102469.59;;;-3.71;70.86
59487;BME280;45298;54.918;73.504;2023-04-01T18:01:51;102468.47;;;-3.77;70.52
59487;BME280;45298;54.918;73.504;2023-04-01T18:19:37;102464.78;;;-3.84;70.80
59487;BME280;45298;54.918;73.504;2023-04-01T18:22:26;102333.38;;;-4.58;70.33
59487;BME280;45298;54.918;73.504;2023-04-01T18:30:34;102416.28;;;-4.11;71.05
59487;BME280;45298;54.918;73.504;2023-04-01T18:36:19;102421.78;;;-4.02;71.43
59487;BME280;45298;54.918;73.504;2023-04-01T18:38:55;102404.03;;;-4.15;71.59
59487;BME280;45298;54.918;73.504;2023-04-01T18:44:46;102412.25;;;-4.03;71.26
59487;BME280;45298;54.918;73.504;2023-04-01T18:53:12;102424.38;;;-4.02;71.50
59487;BME280;45298;54.918;73.504;2023-04-01T18:58:46;102422.63;;;-4.03;71.71
59487;BME280;45298;54.918;73.504;2023-04-01T19:06:57;102402.25;;;-4.16;71.45
59487;BME280;45298;54.918;73.504;2023-04-01T19:09:44;102396.13;;;-4.18;71.80
59487;BME280;45298;54.918;73.504;2023-04-01T19:12:35;102422.56;;;-4.04;71.87
59487;BME280;45298;54.918;73.504;2023-04-01T19:15:42;102419.72;;;-4.11;71.66
59487;BME280;45298;54.918;73.504;2023-04-01T19:21:21;102415.06;;;-4.21;71.79
59487;BME280;45298;54.918;73.504;2023-04-01T19:29:43;102420.88;;;-4.27;71.98
59487;BME280;45298;54.918;73.504;2023-04-01T19:34:59;102404.97;;;-4.36;72.40
59487;BME280;45298;54.918;73.504;2023-04-01T19:37:54;102394.41;;;-4.42;72.17
59487;BME280;45298;54.918;73.504;2023-04-01T19:45:52;102334.50;;;-4.74;72.43
59487;BME280;45298;54.918;73.504;2023-04-01T19:57:30;102388.00;;;-4.52;72.73
59487;BME280;45298;54.918;73.504;2023-04-01T20:05:55;102398.44;;;-4.49;72.38
59487;BME280;45298;54.918;73.504;2023-04-01T20:13:55;102377.69;;;-4.50;73.22
59487;BME280;45298;54.918;73.504;2023-04-01T20:19:53;102308.19;;;-4.85;73.12
59487;BME280;45298;54.918;73.504;2023-04-01T20:53:23;102344.38;;;-4.64;72.75
59487;BME280;45298;54.918;73.504;2023-04-01T20:58:53;102354.13;;;-4.57;73.67
59487;BME280;45298;54.918;73.504;2023-04-01T21:07:27;102349.59;;;-4.62;73.08
59487;BME280;45298;54.918;73.504;2023-04-01T21:10:24;102359.84;;;-4.65;73.16
59487;BME280;45298;54.918;73.504;2023-04-01T21:32:36;102341.78;;;-4.87;73.30
59487;BME280;45298;54.918;73.504;2023-04-01T21:35:31;102321.66;;;-4.94;73.33
59487;BME280;45298;54.918;73.504;2023-04-01T21:41:11;102311.31;;;-4.94;73.52
59487;BME280;45298;54.918;73.504;2023-04-01T21:44:14;102334.38;;;-4.77;73.35
59487;BME280;45298;54.918;73.504;2023-04-01T21:47:17;102337.78;;;-4.78;73.67
59487;BME280;45298;54.918;73.504;2023-04-01T21:53:30;102349.78;;;-4.80;73.73
59487;BME280;45298;54.918;73.504;2023-04-01T21:59:37;102352.31;;;-4.82;73.49
59487;BME280;45298;54.918;73.504;2023-04-01T22:05:28;102350.72;;;-4.78;73.11
59487;BME280;45298;54.918;73.504;2023-04-01T22:10:54;102314.50;;;-5.01;73.72
59487;BME280;45298;54.918;73.504;2023-04-01T22:13:31;102343.56;;;-4.86;73.33
59487;BME280;45298;54.918;73.504;2023-04-01T22:19:20;102351.22;;;-4.89;73.00
59487;BME280;45298;54.918;73.504;2023-04-01T22:22:18;102354.75;;;-4.87;73.51
59487;BME280;45298;54.918;73.504;2023-04-01T22:25:06;102339.91;;;-4.91;73.15
59487;BME280;45298;54.918;73.504;2023-04-01T22:27:47;102349.47;;;-4.88;73.75
59487;BME280;45298;54.918;73.504;2023-04-01T22:30:35;102352.97;;;-4.88;73.87
59487;BME280;45298;54.918;73.504;2023-04-01T22:33:16;102355.56;;;-4.88;73.68
59487;BME280;45298;54.918;73.504;2023-04-01T22:44:26;102308.34;;;-5.26;73.58
59487;BME280;45298;54.918;73.504;2023-04-01T22:50:10;102329.41;;;-5.17;73.37
59487;BME280;45298;54.918;73.504;2023-04-01T22:52:46;102357.66;;;-5.00;73.92
59487;BME280;45298;54.918;73.504;2023-04-01T22:55:24;102338.25;;;-5.11;73.72
59487;BME280;45298;54.918;73.504;2023-04-01T22:57:58;102269.34;;;-5.53;73.41
59487;BME280;45298;54.918;73.504;2023-04-01T23:00:49;102256.72;;;-5.67;73.99
59487;BME280;45298;54.918;73.504;2023-04-01T23:03:34;102350.47;;;-5.07;73.95
59487;BME280;45298;54.918;73.504;2023-04-01T23:06:06;102258.56;;;-5.64;74.05
59487;BME280;45298;54.918;73.504;2023-04-01T23:09:12;102345.97;;;-5.13;74.48
59487;BME280;45298;54.918;73.504;2023-04-01T23:23:02;102342.28;;;-5.18;73.73
59487;BME280;45298;54.918;73.504;2023-04-01T23:26:28;102348.25;;;-5.21;73.65
59487;BME280;45298;54.918;73.504;2023-04-01T23:28:53;102346.47;;;-5.22;73.76
59487;BME280;45298;54.918;73.504;2023-04-01T23:34:00;102333.09;;;-5.33;74.14
59487;BME280;45298;54.918;73.504;2023-04-01T23:36:30;102328.50;;;-5.40;74.05
59487;BME280;45298;54.918;73.504;2023-04-01T23:39:12;102329.25;;;-5.42;73.95
59487;BME280;45298;54.918;73.504;2023-04-01T23:41:48;102311.91;;;-5.45;73.74
59487;BME280;45298;54.918;73.504;2023-04-01T23:44:19;102307.38;;;-5.51;74.08
59487;BME280;45298;54.918;73.504;2023-04-01T23:46:49;102305.69;;;-5.50;74.32
59487;BME280;45298;54.918;73.504;2023-04-01T23:49:34;102334.22;;;-5.47;74.79
59487;BME280;45298;54.918;73.504;2023-04-01T23:54:44;102328.44;;;-5.41;73.58
59487;BME280;45298;54.918;73.504;2023-04-01T23:57:31;102351.00;;;-5.37;73.53
